Upstream stations:
Downstream station:
SHEF ID: YUKO2 North Canadian River near Yukon,
STATION TYPE:
Regulating: Stage = 11.00, Flow = 3611
STAGE RIV-FLOW WTR-TEMP BAT-LOAD
ft cfs F volt
Ccp-Rev Ccp-Rev Ccp-Rev Ccp-Rev
(US/Central)
02/27 00:00 1.42 57 53.60 12.83
02/27 01:00 1.41 56 53.60 12.78
02/27 02:00 1.42 57 53.60 12.75
02/27 03:00 1.44 59 53.60 12.71
02/27 04:00 1.46 61 53.60 12.68
02/27 05:00 1.48 64 53.60 12.65
02/27 06:00 1.49 65 53.60 12.63
02/27 07:00 1.50 66 53.60 12.61
02/27 08:00 1.51 67 53.60 12.71
02/27 09:00 1.45 60 53.60 13.85
02/27 10:00 1.40 54 53.60 14.08
02/27 11:00 1.36 50 53.60 13.91
02/27 12:00 1.34 48 53.60 13.86
02/27 13:00 1.32 46 53.60 13.82
02/27 14:00 1.31 45 53.60 13.78
02/27 15:00 1.31 45 53.60 13.72
02/27 16:00 1.32 46 53.60 13.59
02/27 17:00 1.33 47 53.60 13.42
02/27 18:00 1.33 47 53.60 13.26
02/27 19:00 1.36 50 53.60 13.09
02/27 20:00 1.39 53 53.60 13.00
02/27 21:00 1.40 54 53.60 12.93
02/27 22:00 1.40 54 53.60 12.89
02/27 23:00 1.40 54 45.30 12.85